Time;durP1;ratioP1;P1;durP2;ratioP2;P2;SDS_P1;SDS_P2;PMS_P1;PMS_P2;Temp;Humidity;BMP_temperature;BMP_pressure;BME280_temperature;BME280_humidity;BME280_pressure;Samples;Min_cycle;Max_cycle;Signal;HPM_P1;HPM_P2
2022/12/09 00:02:10;;;;;;;32.72;18.65;;;;;;;2.83;100.00;99504.72;5007173;28;20442;-72
2022/12/09 00:04:38;;;;;;;29.40;17.48;;;;;;;2.82;100.00;99503.03;5009854;28;20057;-71
2022/12/09 00:07:05;;;;;;;30.48;18.25;;;;;;;2.83;100.00;99509.97;5003186;28;20049;-70
2022/12/09 00:09:32;;;;;;;34.47;18.70;;;;;;;2.81;100.00;99502.16;4999720;28;20719;-71
2022/12/09 00:11:58;;;;;;;31.85;18.25;;;;;;;2.80;100.00;99494.34;5006809;28;20116;-72
2022/12/09 00:14:25;;;;;;;30.85;16.95;;;;;;;2.82;100.00;99500.41;5012459;28;20060;-69
2022/12/09 00:16:51;;;;;;;31.60;17.95;;;;;;;2.71;100.00;99471.94;5003628;28;20049;-69
2022/12/09 00:19:18;;;;;;;34.90;18.85;;;;;;;2.89;100.00;99494.06;4991974;28;20083;-70
2022/12/09 00:21:45;;;;;;;29.50;16.95;;;;;;;2.93;100.00;99493.09;5005305;28;20050;-73
2022/12/09 00:24:12;;;;;;;29.75;17.15;;;;;;;2.92;100.00;99473.06;5005708;28;20609;-71
2022/12/09 00:26:40;;;;;;;30.33;17.17;;;;;;;3.17;100.00;99489.69;5007111;28;20185;-70
2022/12/09 00:29:07;;;;;;;28.40;16.90;;;;;;;3.21;100.00;99489.59;4999324;28;20065;-70
2022/12/09 00:31:36;;;;;;;28.85;18.05;;;;;;;3.07;100.00;99477.81;5010749;28;20089;-71
2022/12/09 00:34:06;;;;;;;29.83;17.35;;;;;;;3.12;100.00;99488.16;5005634;28;20045;-70
2022/12/09 00:36:33;;;;;;;30.10;16.95;;;;;;;3.07;100.00;99483.06;5003367;28;20054;-71
2022/12/09 00:39:00;;;;;;;34.13;17.38;;;;;;;2.94;100.00;99460.81;4995114;28;20057;-71
2022/12/09 00:41:27;;;;;;;28.52;16.45;;;;;;;3.08;100.00;99495.22;5006061;28;20105;-71
2022/12/09 00:43:56;;;;;;;31.00;16.90;;;;;;;3.03;100.00;99485.81;5001706;28;20328;-70
2022/12/09 00:46:23;;;;;;;34.53;17.38;;;;;;;2.94;100.00;99492.19;4993465;28;20057;-71
2022/12/09 00:48:49;;;;;;;32.28;17.70;;;;;;;2.69;100.00;99451.97;4988366;28;20052;-72
2022/12/09 00:51:19;;;;;;;33.28;18.35;;;;;;;2.82;100.00;99476.88;5000118;28;20050;-71
2022/12/09 00:53:46;;;;;;;29.92;16.85;;;;;;;2.85;100.00;99492.44;4997635;28;20060;-72
2022/12/09 00:56:13;;;;;;;29.52;17.00;;;;;;;2.82;100.00;99487.34;5002204;28;20042;-71
2022/12/09 00:58:40;;;;;;;32.45;18.17;;;;;;;2.65;100.00;99464.31;4999936;28;20077;-71
2022/12/09 01:01:06;;;;;;;32.40;17.30;;;;;;;2.78;100.00;99490.94;4999350;28;20084;-71
2022/12/09 01:03:33;;;;;;;35.80;18.35;;;;;;;2.78;100.00;99491.78;5013584;28;20052;-71
2022/12/09 01:06:05;;;;;;;29.52;17.70;;;;;;;2.67;100.00;99466.88;5006809;28;20725;-72
2022/12/09 01:08:32;;;;;;;36.88;18.17;;;;;;;2.77;100.00;99489.22;4994375;28;20528;-71
2022/12/09 01:11:13;;;;;;;35.08;18.58;;;;;;;2.77;100.00;99486.59;5000081;28;20433;-72
2022/12/09 01:13:40;;;;;;;35.60;19.15;;;;;;;2.81;100.00;99485.63;5006403;28;20081;-71
2022/12/09 01:16:15;;;;;;;30.90;18.00;;;;;;;2.79;100.00;99482.19;4997939;28;20367;-71
2022/12/09 01:18:43;;;;;;;32.38;18.23;;;;;;;2.77;100.00;99484.84;4996499;28;20136;-72
2022/12/09 01:21:10;;;;;;;33.65;18.40;;;;;;;2.76;100.00;99484.88;5000563;28;20082;-73
2022/12/09 01:23:37;;;;;;;31.25;18.08;;;;;;;2.60;100.00;99458.34;5004177;28;20050;-72
2022/12/09 01:26:05;;;;;;;33.50;17.80;;;;;;;2.74;100.00;99484.94;4998826;28;20062;-72
2022/12/09 01:28:37;;;;;;;30.08;18.02;;;;;;;2.71;100.00;99478.94;5005711;28;20089;-71
2022/12/09 01:31:09;;;;;;;31.02;17.77;;;;;;;2.75;100.00;99486.66;4999788;28;20054;-72
2022/12/09 01:33:36;;;;;;;31.23;17.52;;;;;;;2.72;100.00;99483.25;5008604;28;20050;-71
2022/12/09 01:36:06;;;;;;;32.47;17.58;;;;;;;2.75;100.00;99486.66;4999518;28;20061;-69
2022/12/09 01:38:33;;;;;;;29.67;17.20;;;;;;;2.60;100.00;99460.97;5005825;28;22671;-71
2022/12/09 01:41:00;;;;;;;30.10;17.38;;;;;;;2.73;100.00;99474.53;4992703;28;20517;-71
2022/12/09 01:43:27;;;;;;;29.75;16.27;;;;;;;2.66;100.00;99465.16;4996216;28;20988;-72
2022/12/09 01:45:54;;;;;;;27.42;16.15;;;;;;;2.86;100.00;99481.09;5003691;28;20072;-71
2022/12/09 01:48:25;;;;;;;28.98;16.55;;;;;;;2.94;100.00;99476.50;4997652;28;20054;-71
2022/12/09 01:50:53;;;;;;;;;;;;;;;2.99;100.00;99474.56;5000523;28;20075;-71
2022/12/09 01:53:23;;;;;;;29.85;15.90;;;;;;;3.04;100.00;99469.22;5010627;28;20370;-71
2022/12/09 01:55:54;;;;;;;29.92;16.45;;;;;;;3.05;100.00;99466.53;4995200;28;20568;-70
2022/12/09 01:58:23;;;;;;;28.02;17.60;;;;;;;3.09;100.00;99472.53;5003511;28;20078;-72
2022/12/09 02:00:50;;;;;;;26.30;15.82;;;;;;;3.03;100.00;99459.66;4995811;28;20084;-70
2022/12/09 02:03:17;;;;;;;29.92;17.38;;;;;;;3.04;100.00;99467.44;5006170;28;20449;-70
2022/12/09 02:05:44;;;;;;;27.90;16.42;;;;;;;2.85;100.00;99437.53;5003910;28;20065;-70
2022/12/09 02:08:14;;;;;;;30.25;16.83;;;;;;;3.00;100.00;99460.59;5007205;28;20057;-70
2022/12/09 02:10:56;;;;;;;31.33;17.60;;;;;;;2.96;100.00;99458.16;4997079;28;20124;-70
2022/12/09 02:13:51;;;;;;;34.40;17.05;;;;;;;2.93;100.00;99463.47;5005337;28;20085;-70
2022/12/09 02:16:22;;;;;;;30.85;16.95;;;;;;;2.91;100.00;99460.88;5007187;28;20049;-70
2022/12/09 02:19:10;;;;;;;26.10;16.58;;;;;;;2.85;100.00;99452.38;5003686;28;20050;-70
2022/12/09 02:21:47;;;;;;;28.88;16.67;;;;;;;2.79;100.00;99440.34;4996608;28;20386;-71
2022/12/09 02:24:23;;;;;;;31.08;17.08;;;;;;;2.91;100.00;99458.28;5004984;28;20050;-70
2022/12/09 02:27:07;;;;;;;29.50;18.08;;;;;;;2.64;100.00;99415.53;4999774;28;20149;-71
2022/12/09 02:29:56;;;;;;;28.73;17.23;;;;;;;2.89;100.00;99451.38;5002555;28;20110;-71
2022/12/09 02:32:39;;;;;;;33.50;17.77;;;;;;;2.89;100.00;99451.38;5003142;28;20053;-70
2022/12/09 02:35:36;;;;;;;28.45;17.33;;;;;;;2.87;100.00;99446.19;5004609;28;20460;-70
2022/12/09 02:38:14;;;;;;;32.17;17.35;;;;;;;2.89;100.00;99451.38;5008441;28;20046;-70
2022/12/09 02:41:08;;;;;;;28.33;17.50;;;;;;;2.87;100.00;99443.56;5000745;28;20076;-71
2022/12/09 02:43:43;;;;;;;29.23;16.85;;;;;;;2.86;100.00;99446.22;5006119;28;20060;-71
2022/12/09 02:46:18;;;;;;;30.73;16.80;;;;;;;2.89;100.00;99441.78;5011127;28;20108;-70
2022/12/09 02:48:50;;;;;;;30.70;18.17;;;;;;;2.88;100.00;99447.91;5007570;28;20325;-71
2022/12/09 02:51:19;;;;;;;30.35;17.00;;;;;;;2.85;100.00;99434.91;5000018;28;20499;-70
2022/12/09 02:53:51;;;;;;;31.65;17.80;;;;;;;2.82;100.00;99429.81;5008062;28;20173;-71
2022/12/09 02:56:19;;;;;;;30.65;17.48;;;;;;;2.83;100.00;99428.91;5007659;28;20084;-71
2022/12/09 02:58:48;;;;;;;30.27;17.65;;;;;;;2.84;100.00;99433.22;5006211;28;20128;-70
2022/12/09 03:01:20;;;;;;;30.42;17.92;;;;;;;2.81;100.00;99423.72;4993368;28;20058;-70
2022/12/09 03:03:48;;;;;;;29.63;17.83;;;;;;;2.83;100.00;99418.44;5009795;28;20663;-71
2022/12/09 03:06:18;;;;;;;31.48;18.00;;;;;;;2.84;100.00;99417.53;5001675;28;20187;-70
2022/12/09 03:08:53;;;;;;;32.10;17.70;;;;;;;2.87;100.00;99419.19;5006848;28;20163;-70
2022/12/09 03:11:23;;;;;;;32.65;18.02;;;;;;;2.83;100.00;99409.75;4998694;28;20054;-70
2022/12/09 03:14:02;;;;;;;30.27;17.48;;;;;;;2.90;100.00;99411.25;5005525;28;20064;-70
2022/12/09 03:16:35;;;;;;;29.45;17.40;;;;;;;2.90;100.00;99406.03;4998683;28;20064;-70
2022/12/09 03:19:41;;;;;;;30.17;17.20;;;;;;;2.94;100.00;99403.28;5001848;28;20149;-70
2022/12/09 03:22:13;;;;;;;30.77;18.13;;;;;;;2.88;100.00;99394.75;4999511;28;20056;-70
2022/12/09 03:24:54;;;;;;;31.17;18.05;;;;;;;2.87;100.00;99398.28;5009247;28;20117;-69
2022/12/09 03:27:38;;;;;;;29.38;16.40;;;;;;;2.80;100.00;99397.63;4997097;28;20136;-70
2022/12/09 03:30:07;;;;;;;33.83;17.83;;;;;;;2.87;100.00;99391.28;4997469;28;20054;-70
2022/12/09 03:32:37;;;;;;;32.53;17.85;;;;;;;2.89;100.00;99394.72;5009241;28;20450;-70
2022/12/09 03:35:09;;;;;;;32.05;17.90;;;;;;;2.93;100.00;99391.09;5004535;28;20052;-70
2022/12/09 03:37:39;;;;;;;32.10;17.58;;;;;;;2.98;100.00;99397.06;5006683;28;20042;-70
2022/12/09 03:40:11;;;;;;;33.70;17.55;;;;;;;2.97;100.00;99378.78;4999374;28;20061;-72
2022/12/09 03:43:09;;;;;;;31.15;17.85;;;;;;;3.06;100.00;99381.09;4999193;28;20491;-72
2022/12/09 03:45:36;;;;;;;31.95;17.58;;;;;;;3.12;100.00;99380.91;4999656;28;20501;-71
2022/12/09 03:48:03;;;;;;;30.15;17.52;;;;;;;3.16;100.00;99387.72;5003909;28;20058;-71
2022/12/09 03:50:35;;;;;;;31.63;17.13;;;;;;;3.14;100.00;99389.56;4989829;28;20375;-71
2022/12/09 03:53:52;;;;;;;29.15;17.48;;;;;;;3.05;100.00;99382.84;5004359;28;20129;-71
2022/12/09 03:56:26;;;;;;;34.50;17.45;;;;;;;2.98;100.00;99383.97;4989156;28;20115;-70
2022/12/09 03:58:57;;;;;;;32.10;18.77;;;;;;;2.94;100.00;99384.13;5002348;28;20149;-69
2022/12/09 04:01:26;;;;;;;32.13;18.58;;;;;;;2.87;100.00;99380.81;4997805;28;20564;-70
2022/12/09 04:03:54;;;;;;;35.63;19.88;;;;;;;2.70;100.00;99351.75;5008526;28;20129;-69
2022/12/09 04:06:24;;;;;;;35.15;19.75;;;;;;;2.80;100.00;99380.19;5000840;28;20510;-70
2022/12/09 04:08:51;;;;;;;36.90;20.63;;;;;;;2.76;100.00;99381.19;5003966;28;20490;-70
2022/12/09 04:11:24;;;;;;;33.65;19.83;;;;;;;2.77;100.00;99374.19;4991796;28;20378;-70
2022/12/09 04:13:51;;;;;;;38.28;20.35;;;;;;;2.75;100.00;99376.00;4992475;28;20412;-71
2022/12/09 04:16:18;;;;;;;34.72;21.20;;;;;;;2.80;100.00;99380.19;5000867;28;20117;-70
2022/12/09 04:18:44;;;;;;;33.90;20.58;;;;;;;2.72;100.00;99365.63;5004671;28;20042;-70
2022/12/09 04:21:12;;;;;;;32.30;19.80;;;;;;;2.82;100.00;99382.75;4992293;28;20077;-70
2022/12/09 04:23:39;;;;;;;35.30;19.95;;;;;;;2.81;100.00;99375.81;5000986;28;20425;-71
2022/12/09 04:26:15;;;;;;;34.15;19.88;;;;;;;2.81;100.00;99381.03;4996758;28;20053;-70
2022/12/09 04:28:45;;;;;;;36.95;20.05;;;;;;;2.79;100.00;99378.47;5001291;28;20068;-70
2022/12/09 04:31:14;;;;;;;35.55;20.65;;;;;;;2.73;100.00;99375.19;4989630;28;20064;-70
2022/12/09 04:33:41;;;;;;;34.97;20.30;;;;;;;2.74;100.00;99382.13;4994766;28;20332;-70
2022/12/09 04:36:12;;;;;;;35.75;21.42;;;;;;;2.75;100.00;99376.84;4997384;28;20057;-70
2022/12/09 04:38:41;;;;;;;35.78;21.08;;;;;;;2.77;100.00;99376.81;4997008;28;20165;-70
2022/12/09 04:41:08;;;;;;;36.42;20.48;;;;;;;2.67;100.00;99355.34;4990570;28;20458;-70
2022/12/09 04:43:35;;;;;;;35.40;20.70;;;;;;;2.82;100.00;99377.53;4987688;28;20133;-70
2022/12/09 04:46:05;;;;;;;36.13;21.73;;;;;;;2.81;100.00;99381.03;4998075;28;20056;-71
2022/12/09 04:48:32;;;;;;;38.53;21.67;;;;;;;2.88;100.00;99382.53;4995268;28;20057;-71
2022/12/09 04:50:59;;;;;;;35.55;20.85;;;;;;;2.90;100.00;99380.72;4991086;28;20532;-70
2022/12/09 04:53:27;;;;;;;36.38;21.75;;;;;;;2.91;100.00;99377.22;5001708;28;20573;-71
2022/12/09 04:56:05;;;;;;;38.83;22.05;;;;;;;2.88;100.00;99374.69;4999324;28;20058;-70
2022/12/09 04:58:32;;;;;;;36.38;21.05;;;;;;;2.91;100.00;99364.13;5004975;28;20089;-70
2022/12/09 05:01:05;;;;;;;37.17;20.85;;;;;;;2.93;100.00;99367.56;4990867;28;20101;-71
2022/12/09 05:03:32;;;;;;;41.65;22.73;;;;;;;2.93;100.00;99364.09;5001196;28;20482;-70
2022/12/09 05:06:05;;;;;;;38.80;22.15;;;;;;;2.74;100.00;99350.75;4999161;28;20045;-72
2022/12/09 05:08:34;;;;;;;36.78;20.50;;;;;;;2.83;100.00;99365.31;5001936;28;20066;-70
2022/12/09 05:11:02;;;;;;;38.92;20.92;;;;;;;2.79;100.00;99368.00;4994336;28;20072;-70
2022/12/09 05:13:30;;;;;;;41.03;21.92;;;;;;;2.80;100.00;99367.13;5000341;28;20089;-73
2022/12/09 05:16:05;;;;;;;37.58;21.38;;;;;;;2.81;100.00;99370.59;4995733;28;20061;-71
2022/12/09 05:18:39;;;;;;;34.83;20.48;;;;;;;2.79;100.00;99375.84;5008576;28;20042;-71
2022/12/09 05:21:11;;;;;;;36.58;20.83;;;;;;;2.76;100.00;99367.25;4992376;28;20118;-72
2022/12/09 05:23:38;;;;;;;39.45;21.60;;;;;;;2.72;100.00;99371.72;5006718;28;20046;-71
2022/12/09 05:26:07;;;;;;;35.90;20.75;;;;;;;2.68;100.00;99366.63;4995222;28;20054;-71
2022/12/09 05:28:34;;;;;;;38.05;20.83;;;;;;;2.63;100.00;99361.56;4997109;28;20129;-71
2022/12/09 05:31:03;;;;;;;37.65;21.77;;;;;;;2.62;100.00;99362.47;4991962;28;20058;-71
2022/12/09 05:33:30;;;;;;;35.80;21.08;;;;;;;2.60;100.00;99355.56;5002124;28;20080;-72
2022/12/09 05:35:58;;;;;;;37.00;21.05;;;;;;;2.59;100.00;99357.31;4998358;28;20423;-71
2022/12/09 05:38:25;;;;;;;35.40;20.70;;;;;;;2.57;100.00;99358.25;4999637;28;20042;-71
2022/12/09 05:40:52;;;;;;;35.97;20.42;;;;;;;2.30;100.00;99300.75;4991452;28;20747;-72
2022/12/09 05:43:19;;;;;;;35.47;21.52;;;;;;;2.60;100.00;99355.56;4995788;28;20068;-71
2022/12/09 05:45:46;;;;;;;37.60;21.98;;;;;;;2.61;100.00;99349.44;4997603;28;20141;-71
2022/12/09 05:48:12;;;;;;;37.63;21.63;;;;;;;2.53;100.00;99347.03;5006673;28;20354;-71
2022/12/09 05:50:39;;;;;;;38.05;20.85;;;;;;;2.55;100.00;99347.84;4999859;28;20051;-71
2022/12/09 05:53:06;;;;;;;40.75;21.80;;;;;;;2.49;100.00;99347.22;5005999;28;20050;-71
2022/12/09 05:55:33;;;;;;;33.55;19.55;;;;;;;2.45;100.00;99336.84;5004549;28;20046;-71
2022/12/09 05:58:00;;;;;;;34.30;20.65;;;;;;;2.16;100.00;99287.25;5002513;28;21292;-72
2022/12/09 06:00:27;;;;;;;38.47;22.67;;;;;;;2.23;100.00;99303.56;5001178;28;20454;-71
2022/12/09 06:02:54;;;;;;;34.38;20.42;;;;;;;2.40;100.00;99330.91;5009457;28;20584;-71
2022/12/09 06:05:21;;;;;;;40.50;21.40;;;;;;;2.38;100.00;99331.84;5007086;28;20057;-70
2022/12/09 06:07:48;;;;;;;40.40;22.60;;;;;;;2.31;100.00;99325.13;5011847;28;20057;-71
2022/12/09 06:10:15;;;;;;;41.13;22.50;;;;;;;2.27;100.00;99324.34;4997357;28;20063;-71
2022/12/09 06:12:42;;;;;;;36.15;20.95;;;;;;;2.32;100.00;99330.28;4998100;28;20042;-71
2022/12/09 06:15:09;;;;;;;36.17;21.45;;;;;;;2.35;100.00;99331.97;5004660;28;20065;-70
2022/12/09 06:17:42;;;;;;;37.38;21.17;;;;;;;2.39;100.00;99325.72;5009988;28;20046;-71
2022/12/09 06:20:09;;;;;;;36.00;20.75;;;;;;;2.39;100.00;99331.78;4997582;28;20619;-72
2022/12/09 06:22:36;;;;;;;39.88;21.52;;;;;;;2.44;100.00;99323.81;5008966;28;20445;-70
2022/12/09 06:25:04;;;;;;;41.05;21.58;;;;;;;2.47;100.00;99332.44;4998480;28;20629;-71
2022/12/09 06:27:30;;;;;;;34.42;20.55;;;;;;;2.45;100.00;99329.00;5005437;28;20067;-71
2022/12/09 06:29:57;;;;;;;37.22;20.98;;;;;;;2.45;100.00;99328.16;5008023;28;20125;-71
2022/12/09 06:32:24;;;;;;;42.53;22.83;;;;;;;2.43;100.00;99329.94;4998351;28;20136;-70
2022/12/09 06:34:51;;;;;;;41.03;22.05;;;;;;;2.35;100.00;99331.97;5003884;28;20061;-72
2022/12/09 06:37:18;;;;;;;42.70;22.15;;;;;;;2.41;100.00;99329.13;5003674;28;20449;-70
2022/12/09 06:39:45;;;;;;;39.13;21.92;;;;;;;2.38;100.00;99337.06;5004406;28;20082;-70
2022/12/09 06:42:12;;;;;;;42.63;23.13;;;;;;;2.38;100.00;99340.53;4999176;28;20081;-71
2022/12/09 06:44:40;;;;;;;40.15;22.50;;;;;;;2.28;100.00;99313.00;5008828;28;20153;-72
2022/12/09 06:47:07;;;;;;;41.38;23.50;;;;;;;2.44;100.00;99342.97;5007239;28;20554;-71
2022/12/09 06:49:34;;;;;;;37.22;21.08;;;;;;;2.46;100.00;99337.69;5005018;28;20396;-71
2022/12/09 06:52:01;;;;;;;43.13;22.70;;;;;;;2.45;100.00;99341.22;4996001;28;20360;-71
2022/12/09 06:54:28;;;;;;;39.10;21.77;;;;;;;2.49;100.00;99347.22;5008957;28;20061;-71
2022/12/09 06:56:55;;;;;;;38.28;22.05;;;;;;;2.52;100.00;99347.13;5007141;28;20046;-72
2022/12/09 06:59:21;;;;;;;41.17;23.30;;;;;;;2.39;100.00;99316.13;5013192;28;20417;-71
2022/12/09 07:01:49;;;;;;;41.20;22.40;;;;;;;2.57;100.00;99346.06;4997050;28;20045;-70
2022/12/09 07:04:16;;;;;;;39.97;22.38;;;;;;;2.56;100.00;99333.88;5006143;28;20048;-71
2022/12/09 07:06:44;;;;;;;38.40;22.83;;;;;;;2.67;100.00;99347.50;5002731;28;20054;-71
2022/12/09 07:09:14;;;;;;;39.15;21.88;;;;;;;2.69;100.00;99340.44;5003898;28;20570;-71
2022/12/09 07:11:44;;;;;;;40.03;22.17;;;;;;;2.67;100.00;99344.88;4997070;28;20494;-71
2022/12/09 07:14:13;;;;;;;40.38;21.48;;;;;;;2.65;100.00;99340.59;5002876;28;20053;-71
2022/12/09 07:16:40;;;;;;;38.05;21.73;;;;;;;2.63;100.00;99345.88;4993750;28;20050;-71
2022/12/09 07:19:18;;;;;;;40.58;22.42;;;;;;;2.49;100.00;99326.31;5009616;28;20077;-71
2022/12/09 07:21:46;;;;;;;41.55;22.30;;;;;;;2.64;100.00;99346.72;4996616;28;20046;-71
2022/12/09 07:24:13;;;;;;;37.88;20.67;;;;;;;2.59;100.00;99343.41;4998697;28;20080;-71
2022/12/09 07:26:41;;;;;;;37.38;20.35;;;;;;;2.49;100.00;99326.31;4991759;28;20772;-71
2022/12/09 07:29:08;;;;;;;35.13;20.98;;;;;;;2.62;100.00;99346.78;4990376;28;20069;-72
2022/12/09 07:31:35;;;;;;;38.42;22.23;;;;;;;2.64;100.00;99351.97;5008673;28;20189;-71
2022/12/09 07:34:03;;;;;;;42.13;22.08;;;;;;;2.58;100.00;99350.38;5005949;28;20041;-72
2022/12/09 07:36:32;;;;;;;41.78;22.27;;;;;;;2.56;100.00;99354.78;4994721;28;20740;-71
2022/12/09 07:39:02;;;;;;;37.78;20.52;;;;;;;2.48;100.00;99348.97;5007455;28;20124;-71
2022/12/09 07:41:29;;;;;;;40.03;22.10;;;;;;;2.51;100.00;99350.63;4995610;28;20068;-71
2022/12/09 07:43:56;;;;;;;36.80;21.17;;;;;;;2.48;100.00;99351.56;4998906;28;20077;-71
2022/12/09 07:46:26;;;;;;;39.75;21.40;;;;;;;2.45;100.00;99339.47;4998371;28;20053;-72
2022/12/09 07:48:55;;;;;;;38.75;22.38;;;;;;;2.44;100.00;99335.13;4996440;28;20046;-71
2022/12/09 07:51:23;;;;;;;36.00;20.80;;;;;;;2.44;100.00;99337.75;5002120;28;20049;-71
2022/12/09 07:53:50;;;;;;;36.50;21.27;;;;;;;2.47;100.00;99340.28;4998674;28;20141;-70
2022/12/09 07:56:17;;;;;;;38.95;21.85;;;;;;;2.43;100.00;99333.41;4994432;28;20429;-73
2022/12/09 07:58:52;;;;;;;42.60;21.63;;;;;;;2.40;100.00;99338.72;4991420;28;20111;-68
2022/12/09 08:01:25;;;;;;;41.88;22.17;;;;;;;2.40;100.00;99337.88;4993620;28;20406;-71
2022/12/09 08:03:53;;;;;;;41.75;21.48;;;;;;;2.26;100.00;99321.78;5002373;28;20399;-70
2022/12/09 08:06:23;;;;;;;41.88;22.25;;;;;;;2.30;100.00;99329.47;4990728;28;20050;-71
2022/12/09 08:08:50;;;;;;;39.83;22.17;;;;;;;2.28;100.00;99327.81;4996798;28;20057;-70
2022/12/09 08:11:21;;;;;;;39.13;22.48;;;;;;;2.07;100.00;99308.41;4994105;28;21725;-70
2022/12/09 08:13:48;;;;;;;42.00;23.05;;;;;;;2.10;100.00;99310.94;5002930;28;20092;-71
2022/12/09 08:16:17;;;;;;;42.00;23.83;;;;;;;2.28;100.00;99339.13;5000518;28;20547;-70
2022/12/09 08:18:46;;;;;;;48.45;23.30;;;;;;;2.31;100.00;99338.19;4996786;28;20888;-70
2022/12/09 08:21:18;;;;;;;43.05;24.17;;;;;;;2.41;100.00;99339.59;4997697;28;20154;-70
2022/12/09 08:23:45;;;;;;;46.50;24.13;;;;;;;2.30;100.00;99339.06;5004725;28;20678;-70
2022/12/09 08:26:15;;;;;;;47.55;25.50;;;;;;;2.21;100.00;99334.97;4995678;28;20057;-70
2022/12/09 08:28:42;;;;;;;51.20;26.38;;;;;;;2.19;100.00;99334.19;4989878;28;20124;-72
2022/12/09 08:31:12;;;;;;;46.83;26.00;;;;;;;2.17;100.00;99335.13;5004015;28;20054;-70
2022/12/09 08:33:40;;;;;;;49.45;27.52;;;;;;;2.13;100.00;99339.56;4998157;28;20125;-71
2022/12/09 08:36:16;;;;;;;47.72;25.05;;;;;;;2.13;100.00;99333.50;4986937;28;20144;-72
2022/12/09 08:38:44;;;;;;;50.08;25.98;;;;;;;1.97;100.00;99320.03;5003074;28;20642;-71
2022/12/09 08:41:33;;;;;;;44.55;24.60;;;;;;;2.06;100.00;99338.03;4998418;28;20046;-72
2022/12/09 08:44:10;;;;;;;43.28;23.77;;;;;;;2.00;100.00;99341.69;5001801;28;20042;-72
2022/12/09 08:46:40;;;;;;;43.15;23.23;;;;;;;1.82;100.00;99310.03;4995578;28;20058;-69
2022/12/09 08:49:07;;;;;;;41.50;22.92;;;;;;;1.93;100.00;99337.53;5007648;28;20510;-70
2022/12/09 08:51:35;;;;;;;47.65;25.65;;;;;;;1.94;100.00;99339.25;4999486;28;20050;-70
2022/12/09 08:54:03;;;;;;;40.42;22.73;;;;;;;1.94;100.00;99334.03;4999446;28;20397;-71
2022/12/09 08:56:30;;;;;;;42.10;22.80;;;;;;;1.90;100.00;99323.72;4989472;28;20064;-71
2022/12/09 08:58:57;;;;;;;47.85;22.60;;;;;;;1.90;100.00;99335.00;4999960;28;21045;-71
2022/12/09 09:01:31;;;;;;;39.53;22.05;;;;;;;1.72;100.00;99292.03;4994212;28;20495;-70
2022/12/09 09:04:05;;;;;;;38.72;21.55;;;;;;;1.97;100.00;99327.88;4995167;28;20779;-71
2022/12/09 09:06:35;;;;;;;38.00;20.80;;;;;;;2.01;100.00;99326.88;5003923;28;20441;-70
2022/12/09 09:09:04;;;;;;;35.22;20.60;;;;;;;2.01;100.00;99324.28;4993705;28;20536;-71
2022/12/09 09:11:31;;;;;;;35.97;20.48;;;;;;;2.01;100.00;99327.75;5004368;28;20046;-71
2022/12/09 09:14:01;;;;;;;36.70;20.67;;;;;;;1.92;100.00;99299.28;5000712;28;20402;-71
2022/12/09 09:16:28;;;;;;;37.47;20.27;;;;;;;2.03;100.00;99328.56;4998612;28;20058;-71
2022/12/09 09:18:55;;;;;;;32.53;19.48;;;;;;;2.07;100.00;99330.16;5000339;28;20172;-70
2022/12/09 09:21:23;;;;;;;34.63;19.10;;;;;;;2.09;100.00;99324.88;5003942;28;20050;-71
2022/12/09 09:23:50;;;;;;;33.58;18.70;;;;;;;2.16;100.00;99331.66;5000531;28;20054;-71
2022/12/09 09:26:19;;;;;;;34.00;18.83;;;;;;;2.27;100.00;99341.78;4994494;28;20187;-71
2022/12/09 09:28:47;;;;;;;34.45;19.55;;;;;;;2.38;100.00;99329.22;4990250;28;20041;-71
2022/12/09 09:31:18;;;;;;;33.25;18.17;;;;;;;2.51;100.00;99329.72;5000967;28;20073;-71
2022/12/09 09:33:46;;;;;;;29.83;17.33;;;;;;;2.53;100.00;99327.91;4990646;28;20076;-72
2022/12/09 09:36:16;;;;;;;32.03;18.17;;;;;;;2.53;100.00;99322.66;4993274;28;20172;-69
2022/12/09 09:38:43;;;;;;;32.47;18.17;;;;;;;2.50;100.00;99314.94;4996958;28;20117;-70
2022/12/09 09:41:25;;;;;;;31.30;17.67;;;;;;;2.61;100.00;99323.28;5001604;28;20680;-71
2022/12/09 09:43:54;;;;;;;29.83;17.83;;;;;;;2.75;100.00;99323.72;4995755;28;20698;-71
2022/12/09 09:46:41;;;;;;;33.35;17.85;;;;;;;2.80;100.00;99317.44;4995128;28;20050;-69
2022/12/09 09:49:19;;;;;;;30.30;17.60;;;;;;;2.96;100.00;99322.16;4993393;28;20053;-72
2022/12/09 09:51:46;;;;;;;29.45;17.25;;;;;;;2.97;100.00;99308.19;4993353;28;20054;-71
2022/12/09 09:54:14;;;;;;;26.23;14.93;;;;;;;3.03;100.00;99319.28;4993297;28;20107;-71
2022/12/09 09:56:53;;;;;;;26.77;15.02;;;;;;;3.02;100.00;99309.72;4991345;28;20061;-74
2022/12/09 09:59:42;;;;;;;23.17;13.68;;;;;;;2.76;100.00;99288.81;4990538;28;20056;-70
2022/12/09 10:02:46;;;;;;;25.33;14.60;;;;;;;2.69;100.00;99306.44;5002800;28;20073;-70
2022/12/09 10:05:39;;;;;;;27.92;15.50;;;;;;;2.54;100.00;99303.47;5001898;28;20057;-71
2022/12/09 10:08:12;;;;;;;29.20;15.90;;;;;;;2.52;100.00;99306.13;4994352;28;20130;-71
2022/12/09 10:11:06;;;;;;;26.58;16.33;;;;;;;2.46;100.00;99306.34;5012647;28;20077;-71
2022/12/09 10:13:47;;;;;;;25.80;14.60;;;;;;;2.32;100.00;99292.88;5000211;28;20483;-71
2022/12/09 10:16:40;;;;;;;24.63;14.70;;;;;;;2.29;100.00;99299.03;5009573;28;20493;-71
2022/12/09 10:19:16;;;;;;;25.45;14.93;;;;;;;2.29;100.00;99296.41;4997519;28;20517;-71
2022/12/09 10:21:45;;;;;;;25.70;15.10;;;;;;;2.27;100.00;99294.75;5007982;28;20529;-71
2022/12/09 10:24:26;;;;;;;27.15;15.80;;;;;;;2.28;100.00;99289.47;5004434;28;20105;-71
2022/12/09 10:27:04;;;;;;;25.58;15.52;;;;;;;2.36;100.00;99292.69;4997784;28;20129;-71
2022/12/09 10:29:33;;;;;;;25.92;15.63;;;;;;;2.40;100.00;99294.31;5003113;28;20053;-71
2022/12/09 10:32:01;;;;;;;27.35;15.70;;;;;;;2.24;100.00;99253.91;5006893;28;21219;-71
2022/12/09 10:34:28;;;;;;;25.35;15.65;;;;;;;2.27;100.00;99264.25;4999785;28;20046;-70
2022/12/09 10:36:56;;;;;;;27.17;15.18;;;;;;;2.47;100.00;99285.41;5006652;28;20489;-69
2022/12/09 10:39:22;;;;;;;27.98;15.65;;;;;;;2.57;100.00;99282.47;5004064;28;20057;-71
2022/12/09 10:44:37;;;;;;;27.35;15.65;;;;;;;2.37;100.00;99239.53;5005340;28;20050;-70
2022/12/09 10:47:26;;;;;;;26.88;16.63;;;;;;;2.90;100.00;99293.59;4996036;28;20096;-70
2022/12/09 10:49:54;;;;;;;24.20;15.43;;;;;;;3.02;100.00;99288.78;4998535;28;20424;-71
2022/12/09 10:52:24;;;;;;;24.45;15.30;;;;;;;3.13;100.00;99296.28;4979675;28;20057;-70
2022/12/09 10:54:51;;;;;;;25.60;15.73;;;;;;;3.16;100.00;99298.78;4982538;28;20050;-72
2022/12/09 10:57:18;;;;;;;27.52;15.25;;;;;;;3.19;100.00;99293.44;4977289;28;20042;-69
2022/12/09 11:00:00;;;;;;;23.48;14.45;;;;;;;3.14;100.00;99288.41;4989707;28;20065;-69
2022/12/09 11:02:30;;;;;;;23.35;14.57;;;;;;;3.11;100.00;99290.25;4998147;28;20065;-72
2022/12/09 11:05:16;;;;;;;22.55;13.73;;;;;;;3.04;100.00;99278.28;4999203;28;20156;-72
2022/12/09 11:07:47;;;;;;;24.33;13.98;;;;;;;2.98;100.00;99281.97;4990930;28;20614;-70
2022/12/09 11:10:21;;;;;;;21.50;13.43;;;;;;;2.91;100.00;99271.78;4994562;28;20046;-70
2022/12/09 11:12:53;;;;;;;25.10;15.52;;;;;;;2.80;100.00;99248.59;5001368;28;20141;-70
2022/12/09 11:15:37;;;;;;;26.90;15.55;;;;;;;2.94;100.00;99275.13;4997028;28;20051;-71
2022/12/09 11:18:27;;;;;;;24.23;15.15;;;;;;;2.96;100.00;99259.41;4993594;28;20124;-71
2022/12/09 11:21:04;;;;;;;21.95;14.27;;;;;;;2.99;100.00;99267.16;5002288;28;20554;-71
2022/12/09 11:23:32;;;;;;;22.90;14.02;;;;;;;2.92;100.00;99263.88;5000949;28;20562;-70
2022/12/09 11:26:13;;;;;;;23.48;14.25;;;;;;;2.88;100.00;99262.25;5002503;28;20073;-72
2022/12/09 11:28:39;;;;;;;25.40;14.32;;;;;;;2.77;100.00;99260.03;4992479;28;20414;-71
2022/12/09 11:31:18;;;;;;;24.65;14.48;;;;;;;2.64;100.00;99244.78;5001764;28;20074;-70
2022/12/09 11:34:05;;;;;;;25.65;14.15;;;;;;;2.75;100.00;99258.34;5000549;28;20100;-71
2022/12/09 11:36:35;;;;;;;23.73;14.65;;;;;;;2.75;100.00;99255.75;4998798;28;20097;-71
2022/12/09 11:39:20;;;;;;;24.35;14.05;;;;;;;2.77;100.00;99251.31;4994670;28;20482;-71